Time;durP1;ratioP1;P1;durP2;ratioP2;P2;SDS_P1;SDS_P2;PMS_P1;PMS_P2;Temp;Humidity;BMP_temperature;BMP_pressure;BME280_temperature;BME280_humidity;BME280_pressure;Samples;Min_cycle;Max_cycle;Signal;HPM_P1;HPM_P2
2021/09/20 00:00:23;;;;;;;7.40;6.70;;;;;;;;;;5056044;28;20503;-76
2021/09/20 00:02:49;;;;;;;6.10;5.50;;;;;;;;;;5055825;28;20519;-76
2021/09/20 00:05:15;;;;;;;8.23;6.17;;;;;;;;;;5056146;28;20412;-76
2021/09/20 00:07:41;;;;;;;8.10;5.30;;;;;;;;;;5056097;28;20416;-76
2021/09/20 00:10:09;;;;;;;8.50;6.10;;;;;;;;;;5055989;28;20515;-76
2021/09/20 00:12:35;;;;;;;11.40;7.00;;;;;;;;;;5055419;28;20436;-77
2021/09/20 00:15:01;;;;;;;9.50;6.77;;;;;;;;;;5055970;28;20412;-76
2021/09/20 00:17:27;;;;;;;7.67;6.23;;;;;;;;;;5056069;28;20465;-76
2021/09/20 00:19:53;;;;;;;11.67;6.80;;;;;;;;;;5055983;28;20804;-77
2021/09/20 00:22:19;;;;;;;9.47;7.43;;;;;;;;;;5055324;28;20507;-77
2021/09/20 00:24:45;;;;;;;9.90;6.93;;;;;;;;;;5055781;28;20412;-77
2021/09/20 00:27:12;;;;;;;8.87;7.97;;;;;;;;;;5055755;28;20408;-77
2021/09/20 00:29:38;;;;;;;9.73;7.10;;;;;;;;;;5054384;28;20419;-76
2021/09/20 00:32:05;;;;;;;7.27;6.23;;;;;;;;;;5055442;28;20522;-77
2021/09/20 00:34:31;;;;;;;13.70;7.50;;;;;;;;;;5055600;28;20428;-76
2021/09/20 00:36:57;;;;;;;9.33;7.20;;;;;;;;;;5054546;28;20535;-76
2021/09/20 00:39:23;;;;;;;8.43;6.50;;;;;;;;;;5055663;28;20471;-77
2021/09/20 00:41:49;;;;;;;7.53;6.40;;;;;;;;;;5055218;28;20435;-76
2021/09/20 00:44:15;;;;;;;7.73;7.03;;;;;;;;;;5055263;28;20880;-77
2021/09/20 00:46:41;;;;;;;7.13;6.27;;;;;;;;;;5055314;28;20420;-77
2021/09/20 00:49:07;;;;;;;6.90;6.30;;;;;;;;;;5055401;28;20419;-76
2021/09/20 00:51:33;;;;;;;8.77;7.90;;;;;;;;;;5054886;28;20506;-76
2021/09/20 00:53:59;;;;;;;7.53;6.23;;;;;;;;;;5055231;28;20496;-77
2021/09/20 00:56:26;;;;;;;8.20;7.40;;;;;;;;;;5054971;28;20459;-76
2021/09/20 00:58:52;;;;;;;8.43;7.63;;;;;;;;;;5055046;28;20763;-75
2021/09/20 01:01:19;;;;;;;9.70;7.27;;;;;;;;;;5054614;28;20435;-76
2021/09/20 01:03:45;;;;;;;7.70;6.87;;;;;;;;;;5055065;28;20491;-77
2021/09/20 01:06:11;;;;;;;8.20;7.23;;;;;;;;;;5054929;28;20443;-77
2021/09/20 01:08:37;;;;;;;10.77;8.40;;;;;;;;;;5054966;28;20771;-76
2021/09/20 01:11:03;;;;;;;9.40;8.40;;;;;;;;;;5054432;28;20408;-76
2021/09/20 01:13:29;;;;;;;10.50;9.00;;;;;;;;;;5054887;28;20408;-76
2021/09/20 01:15:55;;;;;;;8.20;7.47;;;;;;;;;;5054849;28;20494;-76
2021/09/20 01:18:21;;;;;;;9.83;8.83;;;;;;;;;;5054737;28;20820;-77
2021/09/20 01:20:47;;;;;;;9.77;7.90;;;;;;;;;;5054296;28;20479;-76
2021/09/20 01:23:13;;;;;;;9.27;8.37;;;;;;;;;;5054764;28;20514;-78
2021/09/20 01:25:42;;;;;;;8.90;8.00;;;;;;;;;;5054573;28;20451;-77
2021/09/20 01:28:08;;;;;;;8.87;7.90;;;;;;;;;;5054712;28;20415;-76
2021/09/20 01:30:34;;;;;;;11.03;8.50;;;;;;;;;;5054576;28;20420;-76
2021/09/20 01:33:00;;;;;;;10.33;9.23;;;;;;;;;;5054076;28;20554;-76
2021/09/20 01:35:26;;;;;;;11.00;8.43;;;;;;;;;;5054563;28;20614;-77
2021/09/20 01:37:52;;;;;;;8.80;7.90;;;;;;;;;;5054529;28;20416;-77
2021/09/20 01:40:18;;;;;;;9.77;8.77;;;;;;;;;;5054350;28;20438;-78
2021/09/20 01:42:44;;;;;;;14.83;9.07;;;;;;;;;;5053798;28;20958;-76
2021/09/20 01:45:11;;;;;;;9.85;8.85;;;;;;;;;;5054144;28;20424;-77
2021/09/20 01:47:37;;;;;;;10.45;8.55;;;;;;;;;;5054113;28;20177;-76
2021/09/20 01:50:04;;;;;;;10.43;9.33;;;;;;;;;;5054168;28;20180;-76
2021/09/20 01:52:30;;;;;;;10.10;8.13;;;;;;;;;;5053660;28;20781;-76
2021/09/20 01:54:56;;;;;;;17.03;9.03;;;;;;;;;;5053901;28;20503;-76
2021/09/20 01:57:23;;;;;;;9.25;8.15;;;;;;;;;;5053949;28;20494;-77
2021/09/20 01:59:52;;;;;;;10.70;9.60;;;;;;;;;;5053989;28;20173;-76
2021/09/20 02:02:18;;;;;;;10.30;9.20;;;;;;;;;;5053510;28;20791;-76
2021/09/20 02:04:44;;;;;;;10.68;8.23;;;;;;;;;;5053916;28;20407;-77
2021/09/20 02:07:10;;;;;;;10.60;9.60;;;;;;;;;;5053615;28;20642;-77
2021/09/20 02:09:36;;;;;;;9.57;8.30;;;;;;;;;;5053656;28;20495;-78
2021/09/20 02:12:02;;;;;;;11.83;8.87;;;;;;;;;;5053433;28;20527;-76
2021/09/20 02:14:28;;;;;;;11.30;9.90;;;;;;;;;;5053993;28;20411;-77
2021/09/20 02:16:54;;;;;;;11.00;9.20;;;;;;;;;;5053664;28;20582;-76
2021/09/20 02:19:20;;;;;;;12.83;9.57;;;;;;;;;;5053555;28;20419;-76
2021/09/20 02:21:46;;;;;;;12.55;9.25;;;;;;;;;;5053367;28;20424;-76
2021/09/20 02:24:12;;;;;;;11.63;9.70;;;;;;;;;;5053623;28;20268;-76
2021/09/20 02:26:38;;;;;;;9.60;8.60;;;;;;;;;;5053590;28;20427;-76
2021/09/20 02:29:05;;;;;;;10.00;8.47;;;;;;;;;;5053459;28;20178;-77
2021/09/20 02:31:31;;;;;;;9.68;8.63;;;;;;;;;;5052959;28;20998;-76
2021/09/20 02:33:57;;;;;;;9.95;8.88;;;;;;;;;;5053307;28;20194;-77
2021/09/20 02:36:24;;;;;;;11.25;9.38;;;;;;;;;;5053324;28;20540;-76
2021/09/20 02:38:50;;;;;;;11.77;8.95;;;;;;;;;;5053405;28;20165;-76
2021/09/20 02:41:16;;;;;;;11.57;9.65;;;;;;;;;;5052799;28;20189;-76
2021/09/20 02:43:42;;;;;;;10.57;9.27;;;;;;;;;;5053459;28;20169;-76
2021/09/20 02:46:08;;;;;;;11.30;8.77;;;;;;;;;;5053334;28;20412;-77
2021/09/20 02:48:34;;;;;;;11.30;9.37;;;;;;;;;;5053160;28;20543;-76
2021/09/20 02:51:00;;;;;;;10.77;9.63;;;;;;;;;;5052704;28;20408;-76
2021/09/20 02:53:26;;;;;;;12.98;9.40;;;;;;;;;;5052989;28;20770;-76
2021/09/20 02:55:52;;;;;;;9.93;8.83;;;;;;;;;;5053017;28;20208;-76
2021/09/20 02:58:18;;;;;;;11.33;8.97;;;;;;;;;;5052659;28;20443;-77
2021/09/20 03:00:44;;;;;;;10.45;8.30;;;;;;;;;;5052735;28;20496;-76
2021/09/20 03:03:11;;;;;;;11.18;9.38;;;;;;;;;;5053112;28;20662;-76
2021/09/20 03:05:37;;;;;;;11.02;9.02;;;;;;;;;;5052728;28;20180;-76
2021/09/20 03:08:04;;;;;;;11.30;10.20;;;;;;;;;;5053026;28;20212;-76
2021/09/20 03:10:30;;;;;;;13.15;10.30;;;;;;;;;;5053211;28;20173;-76
2021/09/20 03:12:56;;;;;;;16.30;9.50;;;;;;;;;;5052727;28;20288;-75
2021/09/20 03:15:22;;;;;;;12.27;9.30;;;;;;;;;;5052985;28;20197;-77
2021/09/20 03:17:48;;;;;;;13.43;9.77;;;;;;;;;;5055763;28;20180;-76
2021/09/20 03:20:15;;;;;;;10.55;9.45;;;;;;;;;;5052877;28;20441;-77
2021/09/20 03:22:41;;;;;;;12.85;9.60;;;;;;;;;;5052581;28;20756;-76
2021/09/20 03:25:07;;;;;;;11.52;10.10;;;;;;;;;;5052949;28;20182;-76
2021/09/20 03:27:33;;;;;;;15.27;9.32;;;;;;;;;;5052981;28;20576;-77
2021/09/20 03:29:59;;;;;;;10.85;9.75;;;;;;;;;;5051860;28;20208;-76
2021/09/20 03:32:25;;;;;;;14.23;10.30;;;;;;;;;;5052253;28;20200;-76
2021/09/20 03:34:51;;;;;;;11.87;10.03;;;;;;;;;;5052886;28;20900;-75
2021/09/20 03:37:17;;;;;;;12.47;10.90;;;;;;;;;;5052778;28;20416;-76
2021/09/20 03:39:43;;;;;;;12.00;9.40;;;;;;;;;;5052675;28;20943;-76
2021/09/20 03:42:09;;;;;;;11.82;9.85;;;;;;;;;;5052189;28;20856;-76
2021/09/20 03:44:35;;;;;;;13.30;10.33;;;;;;;;;;5052737;28;20205;-76
2021/09/20 03:47:01;;;;;;;12.88;10.73;;;;;;;;;;5052764;28;20436;-76
2021/09/20 03:49:27;;;;;;;15.70;10.50;;;;;;;;;;5052483;28;20247;-77
2021/09/20 03:51:53;;;;;;;11.77;9.90;;;;;;;;;;5052112;28;20427;-77
2021/09/20 03:54:19;;;;;;;12.40;10.47;;;;;;;;;;5052517;28;20943;-78
2021/09/20 03:56:45;;;;;;;10.80;9.07;;;;;;;;;;5052534;28;20455;-77
2021/09/20 03:59:11;;;;;;;12.50;10.00;;;;;;;;;;5052546;28;20404;-76
2021/09/20 04:01:37;;;;;;;11.77;9.90;;;;;;;;;;5052092;28;20600;-78
2021/09/20 04:04:03;;;;;;;12.50;10.60;;;;;;;;;;5052282;28;20412;-76
2021/09/20 04:06:29;;;;;;;13.07;10.25;;;;;;;;;;5052431;28;20416;-76
2021/09/20 04:09:00;;;;;;;11.60;9.70;;;;;;;;;;5052441;28;20200;-76
2021/09/20 04:11:26;;;;;;;11.43;9.50;;;;;;;;;;5053740;28;20492;-76
2021/09/20 04:13:52;;;;;;;11.90;9.95;;;;;;;;;;5055993;28;20485;-77
2021/09/20 04:16:18;;;;;;;13.20;9.30;;;;;;;;;;5055808;28;20212;-76
2021/09/20 04:18:44;;;;;;;11.53;10.30;;;;;;;;;;5055868;28;20634;-76
2021/09/20 04:21:10;;;;;;;10.98;9.68;;;;;;;;;;5055590;28;20400;-76
2021/09/20 04:23:36;;;;;;;11.30;9.98;;;;;;;;;;5056027;28;20166;-76
2021/09/20 04:26:02;;;;;;;16.65;10.73;;;;;;;;;;5055723;28;20178;-76
2021/09/20 04:28:28;;;;;;;11.48;9.50;;;;;;;;;;5055804;28;20201;-76
2021/09/20 04:30:54;;;;;;;12.80;10.48;;;;;;;;;;5055396;28;20185;-76
2021/09/20 04:33:22;;;;;;;10.70;9.40;;;;;;;;;;5055536;28;20650;-76
2021/09/20 04:35:48;;;;;;;13.43;11.27;;;;;;;;;;5055562;28;20503;-76
2021/09/20 04:38:14;;;;;;;11.27;9.95;;;;;;;;;;5055625;28;20525;-76
2021/09/20 04:40:40;;;;;;;16.10;10.07;;;;;;;;;;5055069;28;20170;-76
2021/09/20 04:43:08;;;;;;;11.98;10.40;;;;;;;;;;5055326;28;20197;-78
2021/09/20 04:45:34;;;;;;;12.23;9.73;;;;;;;;;;5055517;28;20182;-76
2021/09/20 04:48:00;;;;;;;10.30;9.05;;;;;;;;;;5055493;28;20177;-76
2021/09/20 04:50:26;;;;;;;12.82;10.57;;;;;;;;;;5055471;28;20185;-77
2021/09/20 04:52:53;;;;;;;14.80;10.95;;;;;;;;;;5054909;28;20302;-77
2021/09/20 04:55:19;;;;;;;12.25;10.38;;;;;;;;;;5055167;28;20280;-77
2021/09/20 04:57:45;;;;;;;11.15;9.85;;;;;;;;;;5055530;28;20641;-76
2021/09/20 05:00:12;;;;;;;14.70;10.75;;;;;;;;;;5055007;28;20638;-79
2021/09/20 05:02:38;;;;;;;12.95;9.90;;;;;;;;;;5054564;28;20197;-76
2021/09/20 05:05:04;;;;;;;12.27;10.00;;;;;;;;;;5055008;28;20173;-78
2021/09/20 05:07:30;;;;;;;19.55;10.90;;;;;;;;;;5054873;28;20834;-76
2021/09/20 05:09:56;;;;;;;13.27;9.80;;;;;;;;;;5054947;28;20165;-76
2021/09/20 05:12:22;;;;;;;12.23;9.77;;;;;;;;;;5054355;28;20732;-78
2021/09/20 05:14:48;;;;;;;11.77;9.53;;;;;;;;;;5054749;28;20444;-77
2021/09/20 05:17:14;;;;;;;12.30;9.97;;;;;;;;;;5054730;28;20459;-77
2021/09/20 05:19:40;;;;;;;12.60;9.80;;;;;;;;;;5054739;28;20412;-77
2021/09/20 05:22:06;;;;;;;14.93;10.63;;;;;;;;;;5053878;28;20428;-76
2021/09/20 05:24:32;;;;;;;12.77;10.77;;;;;;;;;;5054571;28;20419;-76
2021/09/20 05:26:58;;;;;;;17.47;10.43;;;;;;;;;;5054625;28;20501;-76
2021/09/20 05:29:24;;;;;;;10.95;9.70;;;;;;;;;;5054529;28;20446;-76
2021/09/20 05:31:50;;;;;;;12.18;10.35;;;;;;;;;;5054215;28;20279;-77
2021/09/20 05:34:18;;;;;;;15.30;10.48;;;;;;;;;;5054431;28;20197;-76
2021/09/20 05:36:44;;;;;;;13.23;9.45;;;;;;;;;;5050927;28;20202;-76
2021/09/20 05:39:10;;;;;;;11.80;9.00;;;;;;;;;;5048562;28;20196;-76
2021/09/20 05:41:36;;;;;;;13.73;10.37;;;;;;;;;;5054058;28;20515;-76
2021/09/20 05:44:02;;;;;;;12.30;10.27;;;;;;;;;;5054260;28;20757;-77
2021/09/20 05:46:28;;;;;;;11.30;10.00;;;;;;;;;;5054119;28;20179;-77
2021/09/20 05:48:54;;;;;;;12.03;9.33;;;;;;;;;;5053813;28;20474;-76
2021/09/20 05:51:20;;;;;;;13.30;10.37;;;;;;;;;;5053672;28;20467;-77
2021/09/20 05:53:46;;;;;;;12.17;9.93;;;;;;;;;;5053093;28;20412;-74
2021/09/20 05:56:12;;;;;;;11.40;9.50;;;;;;;;;;5054039;28;20451;-75
2021/09/20 05:58:38;;;;;;;13.15;10.50;;;;;;;;;;5053920;28;20539;-76
2021/09/20 06:01:04;;;;;;;14.00;10.35;;;;;;;;;;5053629;28;20658;-77
2021/09/20 06:03:30;;;;;;;12.65;10.88;;;;;;;;;;5053999;28;20174;-76
2021/09/20 06:05:56;;;;;;;12.27;10.13;;;;;;;;;;5053890;28;20272;-76
2021/09/20 06:08:22;;;;;;;12.00;10.07;;;;;;;;;;5053870;28;20494;-76
2021/09/20 06:10:48;;;;;;;12.57;10.20;;;;;;;;;;5053367;28;20412;-78
2021/09/20 06:13:14;;;;;;;13.00;10.83;;;;;;;;;;5053523;28;20446;-76
2021/09/20 06:15:40;;;;;;;11.93;9.47;;;;;;;;;;5053661;28;20498;-76
2021/09/20 06:18:07;;;;;;;12.83;10.73;;;;;;;;;;5053705;28;20408;-76
2021/09/20 06:20:33;;;;;;;11.23;9.43;;;;;;;;;;5053559;28;20415;-76
2021/09/20 06:23:00;;;;;;;13.25;10.40;;;;;;;;;;5053281;28;20189;-76
2021/09/20 06:25:27;;;;;;;10.68;9.10;;;;;;;;;;5053572;28;20173;-75
2021/09/20 06:27:53;;;;;;;11.57;9.50;;;;;;;;;;5053626;28;20170;-75
2021/09/20 06:30:19;;;;;;;10.82;8.65;;;;;;;;;;5053555;28;20404;-77
2021/09/20 06:33:05;;;;;;;13.27;9.55;;;;;;;;;;5052791;28;20296;-78
2021/09/20 06:35:31;;;;;;;12.55;9.75;;;;;;;;;;5053132;28;20300;-76
2021/09/20 06:37:58;;;;;;;11.10;9.13;;;;;;;;;;5053497;28;20191;-76
2021/09/20 06:40:23;;;;;;;12.68;9.70;;;;;;;;;;5053383;28;20217;-77
2021/09/20 06:42:49;;;;;;;10.33;8.93;;;;;;;;;;5052790;28;20272;-77
2021/09/20 06:45:16;;;;;;;10.63;8.97;;;;;;;;;;5053141;28;20976;-76
2021/09/20 06:47:42;;;;;;;10.38;9.27;;;;;;;;;;5051918;28;20412;-76
2021/09/20 06:50:08;;;;;;;10.60;9.33;;;;;;;;;;5053444;28;20269;-78
2021/09/20 06:52:34;;;;;;;12.07;9.30;;;;;;;;;;5052615;28;20795;-78
2021/09/20 06:55:00;;;;;;;13.03;8.40;;;;;;;;;;5055606;28;20181;-76
2021/09/20 06:57:26;;;;;;;10.13;8.77;;;;;;;;;;5052896;28;20415;-76
2021/09/20 06:59:52;;;;;;;11.38;9.10;;;;;;;;;;5053036;28;20448;-77
2021/09/20 07:02:18;;;;;;;9.87;8.70;;;;;;;;;;5052737;28;20216;-76
2021/09/20 07:04:44;;;;;;;10.57;9.00;;;;;;;;;;5053100;28;20423;-76
2021/09/20 07:07:13;;;;;;;13.80;9.30;;;;;;;;;;5052971;28;20554;-77
2021/09/20 07:09:39;;;;;;;11.90;9.30;;;;;;;;;;5052784;28;20412;-77
2021/09/20 07:12:05;;;;;;;13.75;8.82;;;;;;;;;;5052501;28;20816;-78
2021/09/20 07:14:31;;;;;;;10.70;8.32;;;;;;;;;;5052912;28;20180;-77
2021/09/20 07:16:57;;;;;;;9.30;8.40;;;;;;;;;;5052953;28;20205;-76
2021/09/20 07:19:23;;;;;;;10.83;8.13;;;;;;;;;;5051601;28;20474;-76
2021/09/20 07:21:49;;;;;;;11.43;8.50;;;;;;;;;;5052509;28;20869;-77
2021/09/20 07:24:15;;;;;;;10.20;8.60;;;;;;;;;;5052911;28;20439;-76
2021/09/20 07:26:42;;;;;;;12.77;7.77;;;;;;;;;;5052898;28;20416;-77
2021/09/20 07:29:08;;;;;;;13.70;8.60;;;;;;;;;;5052828;28;20825;-76
2021/09/20 07:31:34;;;;;;;9.53;7.40;;;;;;;;;;5052220;28;20431;-77
2021/09/20 07:34:00;;;;;;;9.30;8.10;;;;;;;;;;5051411;28;20438;-78
2021/09/20 07:36:26;;;;;;;9.17;8.00;;;;;;;;;;5052607;28;20550;-76
2021/09/20 07:38:52;;;;;;;8.60;7.23;;;;;;;;;;5052758;28;20400;-77
2021/09/20 07:41:18;;;;;;;10.57;7.80;;;;;;;;;;5052362;28;20431;-77
2021/09/20 07:43:47;;;;;;;8.30;6.40;;;;;;;;;;5052742;28;20478;-77
2021/09/20 07:46:17;;;;;;;10.43;7.10;;;;;;;;;;5055991;28;20435;-77
2021/09/20 07:48:43;;;;;;;10.23;7.60;;;;;;;;;;5056505;28;20411;-76
2021/09/20 07:51:09;;;;;;;9.53;8.00;;;;;;;;;;5055971;28;20561;-76
2021/09/20 07:53:35;;;;;;;9.00;7.30;;;;;;;;;;5056386;28;20440;-78
2021/09/20 07:56:01;;;;;;;9.00;7.63;;;;;;;;;;5056173;28;20475;-76
2021/09/20 07:58:27;;;;;;;7.63;6.83;;;;;;;;;;5056410;28;20418;-76
2021/09/20 08:00:53;;;;;;;10.37;6.47;;;;;;;;;;5055812;28;20415;-76
2021/09/20 08:03:19;;;;;;;8.30;6.93;;;;;;;;;;5056100;28;20473;-76
2021/09/20 08:05:45;;;;;;;9.50;6.23;;;;;;;;;;5056178;28;20423;-77
2021/09/20 08:08:11;;;;;;;8.60;6.30;;;;;;;;;;5055988;28;20411;-77
2021/09/20 08:10:38;;;;;;;8.20;6.27;;;;;;;;;;5056571;28;20729;-76
2021/09/20 08:13:04;;;;;;;12.43;7.77;;;;;;;;;;5056233;28;20432;-77
2021/09/20 08:15:30;;;;;;;7.90;6.10;;;;;;;;;;5055753;28;20455;-76
2021/09/20 08:17:57;;;;;;;7.77;6.70;;;;;;;;;;5055770;28;20432;-76
2021/09/20 08:20:23;;;;;;;7.00;6.30;;;;;;;;;;5055824;28;20412;-76
2021/09/20 08:22:49;;;;;;;7.50;6.80;;;;;;;;;;5055426;28;20428;-77
2021/09/20 08:25:16;;;;;;;8.93;6.40;;;;;;;;;;5054721;28;20386;-76
2021/09/20 08:27:42;;;;;;;6.53;5.63;;;;;;;;;;5055812;28;20394;-78
2021/09/20 08:30:09;;;;;;;6.20;5.60;;;;;;;;;;5055628;28;20408;-77
2021/09/20 08:32:35;;;;;;;8.20;5.50;;;;;;;;;;5055053;28;20488;-76
2021/09/20 08:35:01;;;;;;;8.07;5.90;;;;;;;;;;5055678;28;20455;-78
2021/09/20 08:37:27;;;;;;;7.40;6.40;;;;;;;;;;5055709;28;20512;-76
2021/09/20 08:39:53;;;;;;;7.53;5.47;;;;;;;;;;5055829;28;20412;-76
2021/09/20 08:42:20;;;;;;;7.20;4.43;;;;;;;;;;5054936;28;20791;-77
2021/09/20 08:44:46;;;;;;;8.30;5.90;;;;;;;;;;5055473;28;20387;-77
2021/09/20 08:47:15;;;;;;;7.50;5.10;;;;;;;;;;5055459;28;20414;-76
2021/09/20 08:49:41;;;;;;;7.40;4.83;;;;;;;;;;5055206;28;20386;-77
2021/09/20 08:52:07;;;;;;;4.77;4.37;;;;;;;;;;5054903;28;20424;-77
2021/09/20 08:54:33;;;;;;;5.80;4.20;;;;;;;;;;5055310;28;20943;-77
2021/09/20 08:56:59;;;;;;;6.83;5.07;;;;;;;;;;5054456;28;20455;-77
2021/09/20 08:59:25;;;;;;;7.60;5.23;;;;;;;;;;5055313;28;20404;-77
2021/09/20 09:01:53;;;;;;;4.80;4.40;;;;;;;;;;5054584;28;20432;-77
2021/09/20 09:04:30;;;;;;;6.77;4.53;;;;;;;;;;5055160;28;20757;-76
2021/09/20 09:06:56;;;;;;;5.63;4.80;;;;;;;;;;5055147;28;20456;-77
2021/09/20 09:09:33;;;;;;;5.50;5.00;;;;;;;;;;5054911;28;20408;-77
2021/09/20 09:12:13;;;;;;;5.27;3.83;;;;;;;;;;5054576;28;20456;-77
2021/09/20 09:14:43;;;;;;;5.13;4.60;;;;;;;;;;5054642;28;20407;-78
2021/09/20 09:17:10;;;;;;;6.20;4.70;;;;;;;;;;5054926;28;20455;-77
2021/09/20 09:19:42;;;;;;;4.90;4.50;;;;;;;;;;5054829;28;20432;-77
2021/09/20 09:22:08;;;;;;;6.50;4.60;;;;;;;;;;5054349;28;20507;-77
2021/09/20 09:24:34;;;;;;;5.27;4.77;;;;;;;;;;5054550;28;20770;-77
2021/09/20 09:27:01;;;;;;;5.50;4.93;;;;;;;;;;5054719;28;20499;-76
2021/09/20 09:29:31;;;;;;;4.17;3.77;;;;;;;;;;5054764;28;20810;-77
2021/09/20 09:31:58;;;;;;;6.50;4.87;;;;;;;;;;5054173;28;20531;-77
2021/09/20 09:34:26;;;;;;;6.17;4.40;;;;;;;;;;5054309;28;20436;-77
2021/09/20 09:36:52;;;;;;;5.47;4.97;;;;;;;;;;5054235;28;20459;-76
2021/09/20 09:39:28;;;;;;;6.50;5.13;;;;;;;;;;5054471;28;20828;-76
2021/09/20 09:41:54;;;;;;;6.57;4.77;;;;;;;;;;5054055;28;20434;-77
2021/09/20 09:44:25;;;;;;;6.40;5.07;;;;;;;;;;5054333;28;20420;-77
2021/09/20 09:46:51;;;;;;;5.13;4.63;;;;;;;;;;5054447;28;20439;-77
2021/09/20 09:49:19;;;;;;;4.80;4.40;;;;;;;;;;5055280;28;20466;-77
2021/09/20 09:51:59;;;;;;;7.10;4.90;;;;;;;;;;5053988;28;20439;-77
2021/09/20 09:54:32;;;;;;;5.30;4.63;;;;;;;;;;5054224;28;20522;-77
2021/09/20 09:57:12;;;;;;;5.00;4.60;;;;;;;;;;5054060;28;20459;-77
2021/09/20 09:59:38;;;;;;;4.60;4.20;;;;;;;;;;5054106;28;20408;-76
2021/09/20 10:02:17;;;;;;;5.03;4.63;;;;;;;;;;5053694;28;20863;-77
2021/09/20 10:04:51;;;;;;;5.20;4.80;;;;;;;;;;5053811;28;20407;-77
2021/09/20 10:07:25;;;;;;;5.30;4.47;;;;;;;;;;5053786;28;20408;-77
2021/09/20 10:09:51;;;;;;;5.10;4.70;;;;;;;;;;5053981;28;20416;-77
2021/09/20 10:12:18;;;;;;;5.20;4.70;;;;;;;;;;5053332;28;20862;-77
2021/09/20 10:14:45;;;;;;;6.73;4.57;;;;;;;;;;5053703;28;20408;-77
2021/09/20 10:17:16;;;;;;;5.80;4.20;;;;;;;;;;5053643;28;20889;-77
2021/09/20 10:19:43;;;;;;;5.23;4.73;;;;;;;;;;5053820;28;20408;-77
2021/09/20 10:22:09;;;;;;;6.10;4.00;;;;;;;;;;5057283;28;20431;-77
2021/09/20 10:24:35;;;;;;;5.30;4.80;;;;;;;;;;5053767;28;20454;-77
2021/09/20 10:27:01;;;;;;;7.07;4.63;;;;;;;;;;5053566;28;20443;-77
2021/09/20 10:29:27;;;;;;;8.53;4.30;;;;;;;;;;5052228;28;20789;-78
2021/09/20 10:31:54;;;;;;;4.30;3.90;;;;;;;;;;5053071;28;20789;-77
2021/09/20 10:34:24;;;;;;;4.83;4.33;;;;;;;;;;5053604;28;20435;-77
2021/09/20 10:36:52;;;;;;;4.60;4.10;;;;;;;;;;5053607;28;20526;-77
2021/09/20 10:39:19;;;;;;;4.43;4.03;;;;;;;;;;5053602;28;20434;-77
2021/09/20 10:41:45;;;;;;;4.83;4.00;;;;;;;;;;5053005;28;20932;-76
2021/09/20 10:44:12;;;;;;;4.93;4.23;;;;;;;;;;5053148;28;20404;-76
2021/09/20 10:46:39;;;;;;;4.10;3.80;;;;;;;;;;5053160;28;20461;-77
2021/09/20 10:49:06;;;;;;;4.00;3.50;;;;;;;;;;5053123;28;20412;-77
2021/09/20 10:51:37;;;;;;;4.00;3.70;;;;;;;;;;5052829;28;20481;-78
2021/09/20 10:54:18;;;;;;;8.03;4.00;;;;;;;;;;5053274;28;20896;-77
2021/09/20 10:56:45;;;;;;;4.20;3.67;;;;;;;;;;5052993;28;20475;-78
2021/09/20 10:59:12;;;;;;;4.80;4.30;;;;;;;;;;5053172;28;20498;-78
2021/09/20 11:01:42;;;;;;;5.40;4.40;;;;;;;;;;5052646;28;20439;-77
2021/09/20 11:04:15;;;;;;;4.37;3.87;;;;;;;;;;5053188;28;20446;-78
2021/09/20 11:06:43;;;;;;;6.30;3.60;;;;;;;;;;5051858;28;20420;-78
2021/09/20 11:09:09;;;;;;;4.80;3.60;;;;;;;;;;5052934;28;20485;-77
2021/09/20 11:11:44;;;;;;;3.80;3.50;;;;;;;;;;5052697;28;20775;-77
2021/09/20 11:14:16;;;;;;;3.80;3.50;;;;;;;;;;5053184;28;20411;-78
2021/09/20 11:16:46;;;;;;;5.90;4.00;;;;;;;;;;5052737;28;20452;-77
2021/09/20 11:19:33;;;;;;;3.67;3.37;;;;;;;;;;5052834;28;20438;-78
2021/09/20 11:22:14;;;;;;;4.60;3.90;;;;;;;;;;5056721;28;20430;-78
2021/09/20 11:24:46;;;;;;;3.97;3.67;;;;;;;;;;5056928;28;20404;-78
2021/09/20 11:27:16;;;;;;;3.80;3.50;;;;;;;;;;5057139;28;20447;-78
2021/09/20 11:29:44;;;;;;;4.47;4.17;;;;;;;;;;5056986;28;20418;-75
2021/09/20 11:32:10;;;;;;;4.90;4.50;;;;;;;;;;5056548;28;20443;-77
2021/09/20 11:34:37;;;;;;;6.37;4.03;;;;;;;;;;5056823;28;20480;-76
2021/09/20 11:37:15;;;;;;;4.37;3.93;;;;;;;;;;5056977;28;20540;-76
2021/09/20 11:39:45;;;;;;;4.00;3.70;;;;;;;;;;5057016;28;20411;-78
2021/09/20 11:42:15;;;;;;;5.23;3.47;;;;;;;;;;5056229;28;20419;-78
2021/09/20 11:44:52;;;;;;;3.77;3.30;;;;;;;;;;5056520;28;20420;-77
2021/09/20 11:47:19;;;;;;;3.70;3.30;;;;;;;;;;5056577;28;20403;-77
2021/09/20 11:49:46;;;;;;;4.57;4.17;;;;;;;;;;5056731;28;20913;-78
2021/09/20 11:52:13;;;;;;;4.17;3.77;;;;;;;;;;5056088;28;20438;-77
2021/09/20 11:54:40;;;;;;;4.50;4.03;;;;;;;;;;5056588;28;20416;-78
2021/09/20 11:57:10;;;;;;;4.30;3.90;;;;;;;;;;5056334;28;20462;-77
2021/09/20 11:59:36;;;;;;;4.73;4.33;;;;;;;;;;5056363;28;20404;-77
2021/09/20 12:02:02;;;;;;;4.30;4.00;;;;;;;;;;5055823;28;20463;-77
2021/09/20 12:04:47;;;;;;;5.77;3.80;;;;;;;;;;5056245;28;20466;-77
2021/09/20 12:07:25;;;;;;;5.33;4.70;;;;;;;;;;5056117;28;20904;-77
2021/09/20 12:09:51;;;;;;;4.83;4.33;;;;;;;;;;5055867;28;20437;-78
2021/09/20 12:12:17;;;;;;;4.60;4.20;;;;;;;;;;5055659;28;20459;-77
2021/09/20 12:14:54;;;;;;;4.07;3.67;;;;;;;;;;5056050;28;20427;-77
2021/09/20 12:17:20;;;;;;;4.47;4.07;;;;;;;;;;5055896;28;20466;-76
2021/09/20 12:19:53;;;;;;;5.33;4.83;;;;;;;;;;5055676;28;20435;-77
2021/09/20 12:22:19;;;;;;;5.03;3.90;;;;;;;;;;5055408;28;20436;-77
2021/09/20 12:24:45;;;;;;;4.80;4.40;;;;;;;;;;5055755;28;20435;-77
2021/09/20 12:27:11;;;;;;;3.33;3.03;;;;;;;;;;5055802;28;20851;-77
2021/09/20 12:29:38;;;;;;;5.83;4.43;;;;;;;;;;5055879;28;20412;-77
2021/09/20 12:32:05;;;;;;;4.87;4.37;;;;;;;;;;5053885;28;20505;-77
2021/09/20 12:34:35;;;;;;;5.43;3.70;;;;;;;;;;5055367;28;20436;-76
2021/09/20 12:37:03;;;;;;;4.60;4.10;;;;;;;;;;5055513;28;20868;-76
2021/09/20 12:39:32;;;;;;;4.70;4.20;;;;;;;;;;5057814;28;20404;-77
2021/09/20 12:42:04;;;;;;;4.50;4.10;;;;;;;;;;5055112;28;20428;-77
2021/09/20 12:44:35;;;;;;;4.03;3.63;;;;;;;;;;5055611;28;20411;-77
2021/09/20 12:47:09;;;;;;;4.30;4.00;;;;;;;;;;5055890;28;20546;-77
2021/09/20 12:49:36;;;;;;;6.57;4.73;;;;;;;;;;5056493;28;20419;-77
2021/09/20 12:52:03;;;;;;;5.63;5.13;;;;;;;;;;5055074;28;20440;-77
2021/09/20 12:54:31;;;;;;;7.83;5.57;;;;;;;;;;5055256;28;20918;-77
2021/09/20 12:57:16;;;;;;;7.70;5.20;;;;;;;;;;5055999;28;20540;-77
2021/09/20 12:59:42;;;;;;;5.47;5.00;;;;;;;;;;5055259;28;20888;-77
2021/09/20 13:02:12;;;;;;;5.33;4.90;;;;;;;;;;5054797;28;20428;-77
2021/09/20 13:04:39;;;;;;;37.93;9.27;;;;;;;;;;5054064;28;20416;-77
2021/09/20 13:07:21;;;;;;;6.03;5.43;;;;;;;;;;5055273;28;20444;-77
2021/09/20 13:09:57;;;;;;;14.80;6.10;;;;;;;;;;5055238;28;20494;-77
2021/09/20 13:12:24;;;;;;;6.30;5.70;;;;;;;;;;5054655;28;20868;-77
2021/09/20 13:14:52;;;;;;;6.20;5.17;;;;;;;;;;5055102;28;20528;-77
2021/09/20 13:17:18;;;;;;;5.60;5.10;;;;;;;;;;5054943;28;20470;-76
2021/09/20 13:20:04;;;;;;;4.90;4.40;;;;;;;;;;5053698;28;20485;-77
2021/09/20 13:22:33;;;;;;;9.03;5.13;;;;;;;;;;5054295;28;20424;-77
2021/09/20 13:25:17;;;;;;;6.40;5.80;;;;;;;;;;5054916;28;20436;-78
2021/09/20 13:27:43;;;;;;;6.03;5.27;;;;;;;;;;5054712;28;20408;-77
2021/09/20 13:30:16;;;;;;;6.43;5.93;;;;;;;;;;5054588;28;20412;-79
2021/09/20 13:32:42;;;;;;;6.80;6.20;;;;;;;;;;5054031;28;20451;-77
2021/09/20 13:35:18;;;;;;;5.00;4.60;;;;;;;;;;5054764;28;20754;-77
2021/09/20 13:37:44;;;;;;;4.70;4.30;;;;;;;;;;5054590;28;20494;-77
2021/09/20 13:40:10;;;;;;;4.20;3.80;;;;;;;;;;5054502;28;20396;-77
2021/09/20 13:42:36;;;;;;;6.53;4.30;;;;;;;;;;5053674;28;20788;-78
2021/09/20 13:45:02;;;;;;;5.60;5.10;;;;;;;;;;5054395;28;20396;-77
2021/09/20 13:47:28;;;;;;;5.70;5.20;;;;;;;;;;5054234;28;20955;-77
2021/09/20 13:49:55;;;;;;;5.90;5.40;;;;;;;;;;5054456;28;20743;-77
2021/09/20 13:52:21;;;;;;;7.00;5.47;;;;;;;;;;5053793;28;20423;-77
2021/09/20 13:54:47;;;;;;;6.30;5.70;;;;;;;;;;5054443;28;20490;-77
2021/09/20 13:57:13;;;;;;;6.27;5.03;;;;;;;;;;5054389;28;20582;-77
2021/09/20 13:59:39;;;;;;;6.40;5.60;;;;;;;;;;5054281;28;20419;-76
2021/09/20 14:02:05;;;;;;;4.87;4.47;;;;;;;;;;5053736;28;20432;-77
2021/09/20 14:04:31;;;;;;;5.97;5.47;;;;;;;;;;5054067;28;20400;-77
2021/09/20 14:06:57;;;;;;;29.20;7.13;;;;;;;;;;5054033;28;20409;-77
2021/09/20 14:09:23;;;;;;;5.40;4.90;;;;;;;;;;5053833;28;20447;-76
2021/09/20 14:11:49;;;;;;;6.00;5.40;;;;;;;;;;5053615;28;20431;-77
2021/09/20 14:14:16;;;;;;;5.97;5.37;;;;;;;;;;5053727;28;20393;-77
2021/09/20 14:16:42;;;;;;;5.63;5.13;;;;;;;;;;5053628;28;20463;-76
2021/09/20 14:19:09;;;;;;;5.13;4.67;;;;;;;;;;5053683;28;20377;-75
2021/09/20 14:21:35;;;;;;;5.70;5.20;;;;;;;;;;5053370;28;20421;-77
2021/09/20 14:24:01;;;;;;;6.53;4.97;;;;;;;;;;5053794;28;20383;-75
2021/09/20 14:26:27;;;;;;;6.00;4.37;;;;;;;;;;5053631;28;20462;-76
2021/09/20 14:28:53;;;;;;;5.63;5.03;;;;;;;;;;5053454;28;20847;-76
2021/09/20 14:31:19;;;;;;;5.47;4.93;;;;;;;;;;5053147;28;20423;-76
2021/09/20 14:33:46;;;;;;;4.80;4.30;;;;;;;;;;5053558;28;20950;-76
2021/09/20 14:36:12;;;;;;;4.63;4.23;;;;;;;;;;5053454;28;20434;-76